Time;durP1;ratioP1;P1;durP2;ratioP2;P2;SDS_P1;SDS_P2;PMS_P1;PMS_P2;Temp;Humidity;BMP_temperature;BMP_pressure;BME280_temperature;BME280_humidity;BME280_pressure;Samples;Min_cycle;Max_cycle;Signal;HPM_P1;HPM_P2
2024/02/27 00:02:46;;;;;;;61.10;39.80;;;;;;;7.33;100.00;99545.37;182361;1235;58250;-83
2024/02/27 00:06:49;;;;;;;51.60;35.90;;;;;;;7.22;100.00;99553.42;182767;1236;46098;-83
2024/02/27 00:10:52;;;;;;;52.40;37.60;;;;;;;7.10;100.00;99553.66;182487;1234;44168;-83
2024/02/27 00:14:54;;;;;;;51.20;39.20;;;;;;;6.94;100.00;99559.67;182361;1236;46144;-83
2024/02/27 00:18:56;;;;;;;54.00;38.50;;;;;;;6.72;100.00;99562.92;182677;1235;46085;-82
2024/02/27 00:22:58;;;;;;;64.70;38.40;;;;;;;6.61;100.00;99560.41;182078;1234;58223;-82
2024/02/27 00:26:59;;;;;;;56.60;39.30;;;;;;;6.54;100.00;99562.73;182758;1235;46092;-82
2024/02/27 00:31:02;;;;;;;52.30;38.40;;;;;;;6.38;100.00;99563.91;182311;1235;45972;-82
2024/02/27 00:35:04;;;;;;;60.60;38.20;;;;;;;6.24;100.00;99568.88;182230;1236;46021;-83
2024/02/27 00:39:06;;;;;;;62.40;41.10;;;;;;;6.19;100.00;99575.45;183005;1236;45976;-83
2024/02/27 00:43:08;;;;;;;57.50;40.10;;;;;;;6.17;100.00;99575.73;181861;1237;59438;-83
2024/02/27 00:47:10;;;;;;;52.00;38.10;;;;;;;6.04;100.00;99574.58;182733;1236;44673;-83
2024/02/27 00:51:12;;;;;;;49.20;36.70;;;;;;;6.00;100.00;99581.16;182673;1238;43963;-83
2024/02/27 00:55:15;;;;;;;61.40;37.70;;;;;;;5.99;100.00;99583.89;182224;1235;45973;-83
2024/02/27 00:59:18;;;;;;;59.40;38.00;;;;;;;5.97;100.00;99587.86;182252;1238;46103;-82
2024/02/27 01:03:20;;;;;;;55.80;36.60;;;;;;;5.99;100.00;99587.21;182132;1235;59401;-83
2024/02/27 01:07:21;;;;;;;61.30;40.50;;;;;;;6.03;100.00;99582.21;182499;1235;46630;-84
2024/02/27 01:11:23;;;;;;;53.30;37.40;;;;;;;6.07;100.00;99578.77;182400;1238;46096;-82
2024/02/27 01:15:25;;;;;;;56.60;37.70;;;;;;;6.05;100.00;99569.20;182322;1234;45944;-83
2024/02/27 01:19:27;;;;;;;52.50;36.80;;;;;;;6.06;100.00;99559.45;182714;1234;45772;-82
2024/02/27 01:23:29;;;;;;;65.50;43.70;;;;;;;6.03;100.00;99555.46;182316;1238;58635;-83
2024/02/27 01:27:31;;;;;;;104.60;63.60;;;;;;;5.87;100.00;99553.61;182260;1238;46056;-83
2024/02/27 01:31:33;;;;;;;72.80;42.10;;;;;;;5.68;100.00;99550.20;182194;1235;45963;-81
2024/02/27 01:35:35;;;;;;;67.10;41.70;;;;;;;5.47;100.00;99561.39;182454;1235;46022;-82
2024/02/27 01:39:37;;;;;;;66.50;39.50;;;;;;;5.38;100.00;99575.74;182421;1235;45988;-82
2024/02/27 01:43:39;;;;;;;78.10;49.00;;;;;;;5.39;100.00;99587.66;182413;1238;58014;-82
2024/02/27 01:47:41;;;;;;;72.60;45.90;;;;;;;5.42;100.00;99598.20;182932;1235;45101;-83
2024/02/27 01:51:46;;;;;;;73.30;51.30;;;;;;;5.43;100.00;99606.71;183264;1236;46066;-83
2024/02/27 01:55:48;;;;;;;57.60;36.00;;;;;;;5.40;100.00;99613.98;183336;1235;46088;-82
2024/02/27 01:59:50;;;;;;;53.80;33.40;;;;;;;5.35;100.00;99615.23;182301;1234;46084;-83
2024/02/27 02:03:52;;;;;;;61.30;35.60;;;;;;;5.33;100.00;99617.31;182200;1234;57841;-83
2024/02/27 02:07:54;;;;;;;50.50;35.80;;;;;;;5.35;100.00;99627.88;182414;1234;44417;-81
2024/02/27 02:11:57;;;;;;;58.80;34.30;;;;;;;5.35;100.00;99635.59;182132;1234;46103;-83
2024/02/27 02:15:59;;;;;;;38.60;30.20;;;;;;;5.32;100.00;99639.70;182505;1234;45938;-82
2024/02/27 02:20:04;;;;;;;47.90;32.50;;;;;;;5.30;100.00;99646.48;182778;1235;44309;-82
2024/02/27 02:24:09;;;;;;;46.70;29.60;;;;;;;5.25;100.00;99659.83;182413;1236;57652;-82
2024/02/27 02:28:11;;;;;;;45.90;29.30;;;;;;;5.16;100.00;99662.89;182154;1235;46054;-83
2024/02/27 02:32:13;;;;;;;43.30;29.00;;;;;;;5.07;100.00;99668.61;182940;1236;46510;-82
2024/02/27 02:36:15;;;;;;;41.90;28.00;;;;;;;5.01;100.00;99676.23;183550;1235;45937;-82
2024/02/27 02:40:21;;;;;;;44.10;30.20;;;;;;;4.92;100.00;99685.30;182413;1235;46023;-82
2024/02/27 02:44:23;;;;;;;46.70;28.80;;;;;;;4.84;100.00;99683.73;182076;1239;57977;-81
2024/02/27 02:48:24;;;;;;;46.90;29.10;;;;;;;4.76;100.00;99682.89;182079;1235;45956;-82
2024/02/27 02:52:26;;;;;;;44.40;30.30;;;;;;;4.72;100.00;99683.09;182532;1238;45972;-82
2024/02/27 02:56:28;;;;;;;46.80;32.60;;;;;;;4.70;100.00;99689.34;182867;1235;45970;-82
2024/02/27 03:00:30;;;;;;;47.40;31.90;;;;;;;4.71;100.00;99692.48;182666;1235;46099;-85
2024/02/27 03:04:32;;;;;;;43.30;30.30;;;;;;;4.73;100.00;99693.39;181988;1238;58442;-82
2024/02/27 03:08:34;;;;;;;43.30;30.60;;;;;;;4.76;100.00;99693.41;182396;1235;46085;-82
2024/02/27 03:12:37;;;;;;;44.50;29.60;;;;;;;4.77;100.00;99695.94;184064;1236;45915;-82
2024/02/27 03:16:39;;;;;;;45.60;32.20;;;;;;;4.74;100.00;99701.08;182028;1238;46153;-82
2024/02/27 03:20:41;;;;;;;46.70;33.20;;;;;;;4.74;100.00;99703.23;182475;1235;45971;-82
2024/02/27 03:24:43;;;;;;;43.70;29.40;;;;;;;4.74;100.00;99702.16;182497;1236;58098;-82
2024/02/27 03:28:45;;;;;;;41.60;27.90;;;;;;;4.68;100.00;99701.80;182726;1235;45987;-80
2024/02/27 03:32:47;;;;;;;42.20;27.60;;;;;;;4.58;100.00;99701.05;182298;1234;45996;-82
2024/02/27 03:36:48;;;;;;;41.00;28.20;;;;;;;4.47;100.00;99704.92;182707;1238;45857;-82
2024/02/27 03:40:50;;;;;;;46.50;30.60;;;;;;;4.46;100.00;99708.36;182571;1238;45992;-82
2024/02/27 03:44:52;;;;;;;61.00;34.30;;;;;;;4.55;100.00;99706.20;181831;1236;59341;-83
2024/02/27 03:48:53;;;;;;;54.20;33.20;;;;;;;4.63;100.00;99706.15;182118;1236;46128;-82
2024/02/27 03:52:55;;;;;;;46.70;32.90;;;;;;;4.60;100.00;99711.65;182254;1238;46212;-82
2024/02/27 03:56:57;;;;;;;48.50;30.80;;;;;;;4.62;100.00;99716.26;182050;1234;46093;-82
2024/02/27 04:00:59;;;;;;;43.00;30.70;;;;;;;4.66;100.00;99721.42;182009;1238;46071;-83
2024/02/27 04:05:01;;;;;;;54.90;33.60;;;;;;;4.68;100.00;99723.27;182644;1235;58180;-83
2024/02/27 04:09:04;;;;;;;57.90;34.80;;;;;;;4.67;100.00;99728.56;181811;1235;46013;-82
2024/02/27 04:13:06;;;;;;;54.20;31.50;;;;;;;4.63;100.00;99726.05;182384;1235;46177;-82
2024/02/27 04:17:08;;;;;;;49.60;34.40;;;;;;;4.56;100.00;99725.97;182414;1238;46090;-84
2024/02/27 04:21:09;;;;;;;45.00;32.00;;;;;;;4.40;100.00;99726.77;183690;1234;45894;-87
2024/02/27 04:25:11;;;;;;;45.80;31.00;;;;;;;4.18;100.00;99720.88;182745;1235;57374;-84
2024/02/27 04:29:13;;;;;;;58.50;32.90;;;;;;;4.03;100.00;99727.97;183304;1237;46069;-84
2024/02/27 04:33:16;;;;;;;53.90;31.80;;;;;;;3.84;100.00;99732.26;183031;1235;46183;-86
2024/02/27 04:37:18;;;;;;;47.60;33.00;;;;;;;3.62;100.00;99747.34;183438;1239;45927;-88
2024/02/27 04:41:20;;;;;;;55.40;34.30;;;;;;;3.52;100.00;99755.27;182931;1235;46229;-86
2024/02/27 04:45:22;;;;;;;51.30;33.00;;;;;;;3.36;100.00;99758.31;182929;1235;57848;-88
2024/02/27 04:49:24;;;;;;;65.80;38.00;;;;;;;3.12;100.00;99759.41;182710;1235;45967;-87
2024/02/27 04:53:26;;;;;;;67.90;42.90;;;;;;;3.08;100.00;99761.57;182723;1239;46087;-83
2024/02/27 04:57:27;;;;;;;92.40;52.90;;;;;;;3.16;100.00;99763.70;182397;1235;45968;-87
2024/02/27 05:01:29;;;;;;;79.70;50.00;;;;;;;3.31;100.00;99766.67;183207;1235;45834;-85
2024/02/27 05:05:31;;;;;;;93.00;50.70;;;;;;;3.55;100.00;99763.32;182703;1235;59464;-87
2024/02/27 05:09:32;;;;;;;63.40;41.80;;;;;;;3.70;100.00;99760.50;182135;1238;46580;-88
2024/02/27 05:13:34;;;;;;;79.30;48.60;;;;;;;3.77;100.00;99758.46;182921;1236;46084;-83
2024/02/27 05:17:36;;;;;;;79.10;47.40;;;;;;;3.85;100.00;99756.40;183573;1235;46122;-85
2024/02/27 05:21:38;;;;;;;76.20;44.20;;;;;;;3.94;100.00;99771.86;182213;1236;46085;-85
2024/02/27 05:25:39;;;;;;;75.70;45.60;;;;;;;3.95;100.00;99776.18;183653;1235;58976;-85
2024/02/27 05:29:41;;;;;;;116.70;46.10;;;;;;;3.96;100.00;99780.09;183459;1235;46082;-86
2024/02/27 05:33:44;;;;;;;116.00;52.20;;;;;;;4.06;100.00;99784.94;183153;1235;46008;-87
2024/02/27 05:37:46;;;;;;;126.20;51.10;;;;;;;4.15;100.00;99784.20;182445;1235;46054;-87
2024/02/27 05:41:49;;;;;;;73.70;42.10;;;;;;;4.22;100.00;99788.35;182191;1234;45957;-84
2024/02/27 05:45:50;;;;;;;108.30;52.40;;;;;;;4.21;100.00;99789.28;182154;1236;57872;-85
2024/02/27 05:49:53;;;;;;;90.90;50.60;;;;;;;4.33;100.00;99796.77;182637;1234;46004;-86
2024/02/27 05:53:55;;;;;;;85.30;48.10;;;;;;;4.39;100.00;99806.59;182471;1235;45981;-84
2024/02/27 05:57:57;;;;;;;83.10;49.50;;;;;;;4.43;100.00;99820.00;185659;1235;43685;-86
2024/02/27 06:01:58;;;;;;;92.50;48.10;;;;;;;4.54;100.00;99830.52;182719;1235;46042;-86
2024/02/27 06:06:00;;;;;;;76.20;44.70;;;;;;;4.63;100.00;99826.50;182321;1234;57923;-85
2024/02/27 06:10:02;;;;;;;81.40;48.10;;;;;;;4.67;100.00;99838.55;182016;1235;44713;-86
2024/02/27 06:14:04;;;;;;;80.40;48.50;;;;;;;4.73;100.00;99836.39;182882;1235;45119;-86
2024/02/27 06:18:13;;;;;;;98.90;55.60;;;;;;;4.78;100.00;99839.25;182276;1236;46036;-87
2024/02/27 06:22:16;;;;;;;80.90;49.50;;;;;;;4.86;100.00;99831.52;182257;1235;46008;-84
2024/02/27 06:26:18;;;;;;;80.00;50.20;;;;;;;4.90;100.00;99825.09;182295;1238;59465;-87
2024/02/27 06:30:20;;;;;;;69.80;40.80;;;;;;;4.98;100.00;99817.52;182851;1234;45928;-87
2024/02/27 06:34:22;;;;;;;70.10;40.80;;;;;;;5.01;100.00;99811.20;183172;1235;44084;-83
2024/02/27 06:38:24;;;;;;;81.00;50.10;;;;;;;5.11;100.00;99806.70;182279;1237;46030;-87
2024/02/27 06:42:25;;;;;;;80.20;46.70;;;;;;;5.16;100.00;99816.36;182259;1238;46083;-85
2024/02/27 06:46:27;;;;;;;65.80;39.90;;;;;;;5.12;100.00;99833.48;182009;1235;58299;-85
2024/02/27 06:50:30;;;;;;;69.20;42.50;;;;;;;5.10;100.00;99835.73;183213;1235;43971;-86
2024/02/27 06:54:31;;;;;;;79.70;52.00;;;;;;;5.12;100.00;99848.48;182293;1235;46056;-86
2024/02/27 06:58:33;;;;;;;102.10;56.40;;;;;;;5.23;100.00;99840.87;182868;1235;45977;-86
2024/02/27 07:02:35;;;;;;;126.00;57.40;;;;;;;5.26;100.00;99842.80;182368;1234;45838;-86
2024/02/27 07:06:37;;;;;;;90.90;50.70;;;;;;;5.27;100.00;99855.19;182068;1235;59294;-86
2024/02/27 07:10:39;;;;;;;71.00;44.40;;;;;;;5.29;100.00;99862.50;182268;1239;46169;-86
2024/02/27 07:14:42;;;;;;;82.30;46.60;;;;;;;5.31;100.00;99870.10;182737;1234;46002;-83
2024/02/27 07:18:43;;;;;;;83.20;49.90;;;;;;;5.24;100.00;99886.71;182521;1236;46134;-86
2024/02/27 07:22:47;;;;;;;66.60;44.90;;;;;;;5.33;100.00;99892.13;182943;1238;46190;-82
2024/02/27 07:26:49;;;;;;;69.90;45.80;;;;;;;5.25;100.00;99905.79;181832;1238;59136;-84
2024/02/27 07:30:50;;;;;;;70.80;41.30;;;;;;;5.30;100.00;99901.80;182743;1238;46102;-85
2024/02/27 07:34:52;;;;;;;76.90;42.70;;;;;;;5.27;100.00;99892.09;182645;1238;46092;-84
2024/02/27 07:38:54;;;;;;;76.10;46.30;;;;;;;5.33;100.00;99886.83;182135;1235;45928;-85
2024/02/27 07:42:56;;;;;;;71.60;42.50;;;;;;;5.37;100.00;99889.76;182446;1239;45945;-85
2024/02/27 07:46:58;;;;;;;75.20;43.40;;;;;;;5.40;100.00;99895.67;182507;1235;59288;-85
2024/02/27 07:51:00;;;;;;;88.80;42.80;;;;;;;5.43;100.00;99904.09;182594;1235;45798;-86
2024/02/27 07:55:02;;;;;;;68.60;39.40;;;;;;;5.47;100.00;99904.18;182852;1238;45951;-87
2024/02/27 07:59:03;;;;;;;81.20;48.20;;;;;;;5.52;100.00;99907.90;181964;1239;46016;-85
2024/02/27 08:03:06;;;;;;;68.80;44.10;;;;;;;5.62;100.00;99904.11;182351;1239;45961;-80
2024/02/27 08:07:08;;;;;;;80.60;46.30;;;;;;;5.65;100.00;99899.98;182426;1235;57980;-80
2024/02/27 08:11:10;;;;;;;67.40;42.70;;;;;;;5.71;100.00;99902.23;182374;1238;46200;-83
2024/02/27 08:15:12;;;;;;;68.70;39.00;;;;;;;5.75;100.00;99928.20;182169;1236;44086;-86
2024/02/27 08:19:13;;;;;;;72.70;44.00;;;;;;;5.80;100.00;99925.92;182660;1236;45974;-86
2024/02/27 08:23:16;;;;;;;74.70;47.10;;;;;;;5.92;100.00;99926.54;182700;1237;43910;-83
2024/02/27 08:27:18;;;;;;;68.70;35.90;;;;;;;6.01;100.00;99928.23;182508;1237;57811;-87
2024/02/27 08:31:20;;;;;;;70.40;46.40;;;;;;;6.14;100.00;99927.02;182022;1235;46402;-83
2024/02/27 08:35:25;;;;;;;67.00;40.40;;;;;;;6.24;100.00;99930.90;182873;1235;45947;-82
2024/02/27 08:39:27;;;;;;;68.00;34.70;;;;;;;6.19;100.00;99934.22;182311;1235;46166;-84
2024/02/27 08:43:29;;;;;;;76.90;43.60;;;;;;;6.21;100.00;99944.86;181975;1234;46255;-85
2024/02/27 08:47:34;;;;;;;64.10;41.30;;;;;;;6.33;100.00;99954.95;181278;1239;59411;-85
2024/02/27 08:51:36;;;;;;;60.80;40.90;;;;;;;6.28;100.00;99955.98;181508;1239;46080;-85
2024/02/27 08:55:37;;;;;;;69.40;42.10;;;;;;;6.24;100.00;99953.96;182012;1235;46071;-84
2024/02/27 08:59:43;;;;;;;59.50;33.70;;;;;;;6.28;100.00;99958.64;180919;1238;46097;-84
2024/02/27 09:03:45;;;;;;;72.90;45.60;;;;;;;6.24;100.00;99956.47;182287;1238;46883;-84
2024/02/27 09:07:47;;;;;;;85.00;45.00;;;;;;;6.31;100.00;99954.23;181648;1237;58149;-85
2024/02/27 09:11:49;;;;;;;69.70;43.80;;;;;;;6.36;100.00;99946.95;183442;1234;45958;-84
2024/02/27 09:15:51;;;;;;;77.30;45.00;;;;;;;6.36;100.00;99945.40;182579;1239;46009;-84
2024/02/27 09:19:53;;;;;;;130.70;69.80;;;;;;;6.45;100.00;99950.20;184086;1236;44174;-79
2024/02/27 09:23:55;;;;;;;102.80;57.10;;;;;;;6.57;100.00;99953.98;184879;1235;45496;-80
2024/02/27 09:27:57;;;;;;;67.50;43.70;;;;;;;6.64;100.00;99965.67;183172;1236;57134;-84
2024/02/27 09:31:59;;;;;;;60.40;36.90;;;;;;;6.58;100.00;99974.17;183274;1236;45996;-85
2024/02/27 09:36:00;;;;;;;72.50;46.50;;;;;;;6.55;100.00;99973.51;183415;1235;45981;-86
2024/02/27 09:40:03;;;;;;;101.70;54.50;;;;;;;6.65;100.00;99975.27;182572;1237;46024;-87
2024/02/27 09:44:05;;;;;;;87.70;53.00;;;;;;;6.62;100.00;99977.23;182277;1236;45940;-83
2024/02/27 09:48:08;;;;;;;86.60;52.80;;;;;;;6.54;100.00;99984.65;182343;1239;57854;-85
2024/02/27 09:52:22;;;;;;;77.40;48.90;;;;;;;6.60;100.00;99984.29;182165;1235;46045;-87
2024/02/27 09:56:24;;;;;;;91.90;58.80;;;;;;;6.70;100.00;99985.34;182691;1239;46082;-88
2024/02/27 10:00:26;;;;;;;97.00;56.30;;;;;;;6.78;100.00;99995.33;182355;1238;46212;-84
2024/02/27 10:04:28;;;;;;;91.10;56.40;;;;;;;6.82;100.00;100003.49;182613;1234;45989;-85
2024/02/27 10:08:30;;;;;;;92.90;51.70;;;;;;;6.83;100.00;100002.24;181680;1235;56856;-85
2024/02/27 10:12:32;;;;;;;105.00;60.60;;;;;;;6.88;100.00;99993.20;182390;1235;46570;-87
2024/02/27 10:16:34;;;;;;;95.80;58.80;;;;;;;6.98;100.00;99988.46;182449;1235;46027;-86
2024/02/27 10:20:36;;;;;;;101.80;58.40;;;;;;;6.98;100.00;99995.50;182477;1237;46068;-86
2024/02/27 10:24:38;;;;;;;90.80;57.70;;;;;;;7.10;100.00;100003.86;183616;1235;45881;-87
2024/02/27 10:28:39;;;;;;;91.80;56.10;;;;;;;7.23;100.00;100008.20;182561;1236;57730;-87
2024/02/27 10:32:42;;;;;;;109.60;68.70;;;;;;;7.27;100.00;100005.44;182247;1235;45951;-84
2024/02/27 10:36:43;;;;;;;105.10;60.00;;;;;;;7.26;100.00;100005.89;182446;1235;45957;-86
2024/02/27 10:40:47;;;;;;;83.20;51.80;;;;;;;7.33;100.00;100008.58;182583;1235;45831;-85
2024/02/27 10:44:49;;;;;;;99.60;58.00;;;;;;;7.33;100.00;100006.28;182444;1235;46085;-87
2024/02/27 10:48:50;;;;;;;97.20;57.80;;;;;;;7.39;100.00;100004.08;183161;1236;57766;-86
2024/02/27 10:52:56;;;;;;;86.80;50.70;;;;;;;7.45;100.00;100001.34;182357;1238;45951;-85
2024/02/27 10:56:58;;;;;;;100.80;61.60;;;;;;;7.53;100.00;99998.48;182601;1235;45985;-85
2024/02/27 11:00:59;;;;;;;156.00;101.80;;;;;;;7.52;100.00;99997.47;182361;1238;44104;-85
2024/02/27 11:05:03;;;;;;;84.30;55.50;;;;;;;7.63;100.00;99997.40;182608;1238;45993;-85
2024/02/27 11:09:12;;;;;;;84.70;52.00;;;;;;;7.71;100.00;99999.42;182205;1235;59911;-83
2024/02/27 11:13:19;;;;;;;69.30;43.10;;;;;;;7.82;100.00;100003.38;182664;1235;46001;-86
2024/02/27 11:17:22;;;;;;;86.10;50.60;;;;;;;7.88;100.00;100000.96;182218;1235;46771;-86
2024/02/27 11:21:26;;;;;;;77.30;48.20;;;;;;;7.94;100.00;100000.21;183935;1235;45967;-86
2024/02/27 11:25:29;;;;;;;72.70;47.30;;;;;;;7.91;100.00;100001.72;182747;1235;46028;-85
2024/02/27 11:29:31;;;;;;;72.60;49.10;;;;;;;7.97;100.00;100002.80;182627;1235;184267;-85
2024/02/27 11:33:46;;;;;;;76.80;45.60;;;;;;;7.93;100.00;99997.27;182425;1235;45870;-87
2024/02/27 11:37:49;;;;;;;76.70;45.10;;;;;;;7.93;100.00;99996.93;182730;1235;46030;-86
2024/02/27 11:41:51;;;;;;;71.20;46.20;;;;;;;7.95;100.00;100000.98;182383;1239;46097;-86
2024/02/27 11:45:58;;;;;;;71.10;44.70;;;;;;;7.95;100.00;99998.58;182429;1234;46061;-85
2024/02/27 11:50:01;;;;;;;73.30;47.20;;;;;;;7.98;100.00;99997.59;182161;1239;58381;-84
2024/02/27 11:54:11;;;;;;;69.70;44.50;;;;;;;8.05;100.00;99992.33;182063;1235;46012;-83
2024/02/27 11:58:14;;;;;;;93.70;53.20;;;;;;;8.08;100.00;100001.06;183000;1239;45903;-85
2024/02/27 12:02:19;;;;;;;75.90;45.30;;;;;;;8.16;100.00;99993.61;182266;1235;46062;-84
2024/02/27 12:06:21;;;;;;;91.00;56.80;;;;;;;8.24;100.00;100005.36;182373;1235;45556;-87
2024/02/27 12:10:25;;;;;;;70.70;43.10;;;;;;;8.24;100.00;100005.75;182187;1235;59522;-86
2024/02/27 12:14:27;;;;;;;76.30;46.10;;;;;;;8.28;100.00;100001.75;182373;1235;45967;-85
2024/02/27 12:18:29;;;;;;;62.50;40.00;;;;;;;8.26;100.00;100011.61;183992;1235;45963;-80
2024/02/27 12:22:33;;;;;;;68.10;43.00;;;;;;;8.31;100.00;100017.38;182794;1235;46101;-85
2024/02/27 12:26:36;;;;;;;64.80;40.70;;;;;;;8.34;100.00;100022.84;182600;1235;45966;-86
2024/02/27 12:30:45;;;;;;;61.50;38.80;;;;;;;8.36;100.00;100034.34;182709;1235;59469;-85
2024/02/27 12:34:48;;;;;;;60.70;38.80;;;;;;;8.39;100.00;100039.36;182406;1240;46523;-82
2024/02/27 12:38:51;;;;;;;71.90;41.50;;;;;;;8.43;100.00;100034.14;181475;1238;46217;-83
2024/02/27 12:42:54;;;;;;;61.90;40.00;;;;;;;8.35;100.00;100037.90;182514;1238;46061;-83
2024/02/27 12:46:56;;;;;;;63.90;41.70;;;;;;;8.33;100.00;100035.46;183560;1239;46067;-87
2024/02/27 12:51:01;;;;;;;61.70;39.90;;;;;;;8.39;100.00;100034.59;183557;1235;58101;-86
2024/02/27 12:55:05;;;;;;;81.80;41.60;;;;;;;8.45;100.00;100032.23;182166;1234;45964;-85
2024/02/27 12:59:10;;;;;;;85.80;52.10;;;;;;;8.40;100.00;100027.63;182560;1235;46644;-88
2024/02/27 13:03:12;;;;;;;73.90;48.70;;;;;;;8.29;100.00;100032.40;181890;1238;46177;-86
2024/02/27 13:07:14;;;;;;;69.40;41.60;;;;;;;8.19;100.00;100037.05;182157;1235;46153;-86
2024/02/27 13:11:19;;;;;;;56.60;40.10;;;;;;;8.29;100.00;100037.17;182407;1235;59146;-84
2024/02/27 13:15:21;;;;;;;60.60;39.60;;;;;;;8.37;100.00;100031.60;182303;1240;46213;-84
2024/02/27 13:19:23;;;;;;;56.50;37.20;;;;;;;8.46;100.00;100034.45;182116;1235;46009;-87
2024/02/27 13:23:25;;;;;;;63.60;42.40;;;;;;;8.39;100.00;100039.52;182393;1239;46055;-84
2024/02/27 13:27:28;;;;;;;80.80;44.40;;;;;;;8.44;100.00;100046.10;182376;1235;46054;-87
2024/02/27 13:31:30;;;;;;;76.80;43.90;;;;;;;8.36;100.00;100041.70;182610;1235;59808;-86
2024/02/27 13:35:32;;;;;;;62.00;38.70;;;;;;;8.36;100.00;100044.20;182352;1234;45928;-86
2024/02/27 13:39:34;;;;;;;61.40;40.80;;;;;;;8.38;100.00;100040.36;182542;1239;46080;-87
2024/02/27 13:43:36;;;;;;;55.70;36.70;;;;;;;8.44;100.00;100047.18;183569;1238;45906;-88
2024/02/27 13:47:38;;;;;;;55.00;38.10;;;;;;;8.52;100.00;100044.84;183366;1235;45949;-88
2024/02/27 13:51:40;;;;;;;60.10;37.80;;;;;;;8.61;100.00;100045.48;182557;1235;59841;-86
2024/02/27 13:55:42;;;;;;;60.60;40.10;;;;;;;8.73;100.00;100045.84;183108;1235;46006;-85
2024/02/27 13:59:44;;;;;;;52.40;35.40;;;;;;;8.73;100.00;100037.89;183207;1238;45975;-86
2024/02/27 14:03:45;;;;;;;54.80;37.80;;;;;;;8.75;100.00;100038.85;183595;1235;46408;-80
2024/02/27 14:07:48;;;;;;;57.20;37.10;;;;;;;8.75;100.00;100041.82;182546;1238;45967;-85
2024/02/27 14:11:50;;;;;;;48.70;35.30;;;;;;;8.72;100.00;100045.73;182506;1236;57824;-85
2024/02/27 14:15:53;;;;;;;62.60;40.80;;;;;;;8.69;100.00;100044.57;182406;1235;46037;-86
2024/02/27 14:19:55;;;;;;;59.40;37.60;;;;;;;8.69;100.00;100043.14;182186;1238;45970;-87
2024/02/27 14:23:57;;;;;;;52.70;37.80;;;;;;;8.65;100.00;100046.83;182965;1235;46202;-85
2024/02/27 14:27:59;;;;;;;59.60;39.10;;;;;;;8.65;100.00;100044.15;182547;1234;45948;-87
2024/02/27 14:32:01;;;;;;;56.90;37.10;;;;;;;8.63;100.00;100045.77;182231;1235;59297;-85
2024/02/27 14:36:04;;;;;;;56.70;35.10;;;;;;;8.56;100.00;100050.70;182110;1234;46169;-85
2024/02/27 14:40:07;;;;;;;61.10;41.90;;;;;;;8.51;100.00;100045.02;182226;1238;46114;-83
2024/02/27 14:44:10;;;;;;;64.50;39.20;;;;;;;8.39;100.00;100043.85;183326;1235;46068;-84
2024/02/27 14:48:14;;;;;;;61.30;39.30;;;;;;;8.37;100.00;100050.16;182710;1235;46072;-87
2024/02/27 14:52:16;;;;;;;59.50;36.50;;;;;;;8.33;100.00;100050.48;182797;1238;58990;-86
2024/02/27 14:56:17;;;;;;;64.50;36.90;;;;;;;8.36;100.00;100053.18;185939;1235;43653;-83
2024/02/27 15:00:19;;;;;;;58.00;36.40;;;;;;;8.39;100.00;100055.48;184916;1235;46080;-84
2024/02/27 15:04:21;;;;;;;65.00;36.00;;;;;;;8.45;100.00;100056.78;184137;1235;44211;-85
2024/02/27 15:08:23;;;;;;;59.80;38.90;;;;;;;8.52;100.00;100053.27;183169;1234;46178;-84
2024/02/27 15:12:25;;;;;;;56.90;36.80;;;;;;;8.52;100.00;100049.94;183351;1234;59152;-86
2024/02/27 15:16:34;;;;;;;56.80;36.80;;;;;;;8.46;100.00;100054.04;182662;1235;46150;-85
2024/02/27 15:20:35;;;;;;;61.30;35.10;;;;;;;8.45;100.00;100058.55;182913;1235;45999;-85
2024/02/27 15:24:37;;;;;;;63.10;35.90;;;;;;;8.51;100.00;100064.89;183011;1235;45976;-85
2024/02/27 15:28:39;;;;;;;73.80;51.90;;;;;;;8.52;100.00;100065.46;182729;1236;46075;-83
2024/02/27 15:32:41;;;;;;;66.40;38.60;;;;;;;8.42;100.00;100072.91;182645;1235;57843;-85
2024/02/27 15:36:42;;;;;;;59.10;37.80;;;;;;;8.32;100.00;100074.19;183485;1238;45986;-83
2024/02/27 15:40:44;;;;;;;52.60;35.90;;;;;;;8.29;100.00;100071.10;183451;1235;46097;-84
2024/02/27 15:44:46;;;;;;;51.90;33.00;;;;;;;8.25;100.00;100077.36;182953;1238;45874;-83
2024/02/27 15:48:48;;;;;;;51.80;32.70;;;;;;;8.26;100.00;100081.55;182502;1235;46007;-83
2024/02/27 15:52:50;;;;;;;44.40;31.90;;;;;;;8.31;100.00;100096.88;183107;1235;58604;-84
2024/02/27 15:56:52;;;;;;;61.80;36.50;;;;;;;8.34;100.00;100105.02;183301;1235;46024;-84
2024/02/27 16:00:54;;;;;;;60.80;33.60;;;;;;;8.39;100.00;100105.65;183166;1238;46014;-84
2024/02/27 16:04:58;;;;;;;55.50;34.50;;;;;;;8.44;100.00;100107.79;182846;1235;46077;-84
2024/02/27 16:09:00;;;;;;;61.10;35.20;;;;;;;8.54;100.00;100107.58;183058;1235;46075;-84
2024/02/27 16:13:02;;;;;;;68.10;38.10;;;;;;;8.57;100.00;100106.66;183602;1234;60392;-84
2024/02/27 16:17:04;;;;;;;65.60;38.40;;;;;;;8.62;100.00;100109.22;183405;1235;45960;-82
2024/02/27 16:21:16;;;;;;;61.00;34.70;;;;;;;8.64;100.00;100111.95;183737;1234;44535;-83
2024/02/27 16:25:21;;;;;;;44.20;32.90;;;;;;;8.66;100.00;100113.52;183901;1234;45996;-81
2024/02/27 16:29:23;;;;;;;45.90;31.60;;;;;;;8.69;100.00;100116.33;183100;1235;46069;-83
2024/02/27 16:33:25;;;;;;;47.30;31.70;;;;;;;8.69;100.00;100115.83;182558;1237;57824;-84
2024/02/27 16:37:27;;;;;;;68.00;43.10;;;;;;;8.64;100.00;100120.41;182843;1236;44286;-84
2024/02/27 16:41:29;;;;;;;71.10;48.10;;;;;;;8.62;100.00;100119.04;182880;1237;45831;-83
2024/02/27 16:45:31;;;;;;;70.70;46.00;;;;;;;8.64;100.00;100126.77;182952;1235;46059;-84
2024/02/27 16:49:33;;;;;;;73.10;43.30;;;;;;;8.66;100.00;100126.96;183055;1235;45996;-84
2024/02/27 16:53:35;;;;;;;63.40;38.30;;;;;;;8.63;100.00;100131.59;183062;1235;59624;-85
2024/02/27 16:57:36;;;;;;;66.90;37.90;;;;;;;8.67;100.00;100140.52;183494;1234;46043;-86
2024/02/27 17:01:38;;;;;;;59.60;35.50;;;;;;;8.69;100.00;100141.96;183093;1235;46181;-85
2024/02/27 17:05:41;;;;;;;63.50;38.70;;;;;;;8.71;100.00;100140.95;183197;1236;46137;-85
2024/02/27 17:09:42;;;;;;;61.20;35.10;;;;;;;8.78;100.00;100141.13;182894;1235;46022;-84
2024/02/27 17:13:45;;;;;;;63.40;37.20;;;;;;;8.84;100.00;100146.33;183659;1235;59273;-85
2024/02/27 17:17:47;;;;;;;55.20;37.50;;;;;;;8.87;100.00;100150.67;182428;1238;45967;-84
2024/02/27 17:21:49;;;;;;;52.30;36.00;;;;;;;8.91;100.00;100152.66;182182;1235;46073;-84
2024/02/27 17:25:53;;;;;;;48.00;32.90;;;;;;;8.96;100.00;100156.58;182518;1235;46107;-84
2024/02/27 17:29:57;;;;;;;49.60;32.30;;;;;;;8.99;100.00;100160.70;182089;1235;46198;-83
2024/02/27 17:33:59;;;;;;;51.40;31.90;;;;;;;9.03;100.00;100155.98;182435;1236;59833;-84
2024/02/27 17:38:02;;;;;;;48.20;32.70;;;;;;;9.03;100.00;100153.88;182639;1235;46068;-83
2024/02/27 17:42:04;;;;;;;55.80;34.70;;;;;;;9.06;100.00;100151.92;182240;1238;46063;-84
2024/02/27 17:46:09;;;;;;;58.60;35.80;;;;;;;9.01;100.00;100152.45;182421;1235;46006;-84
2024/02/27 17:50:11;;;;;;;53.90;33.60;;;;;;;8.98;100.00;100156.70;182387;1235;46064;-84
2024/02/27 17:54:12;;;;;;;58.60;36.10;;;;;;;8.99;100.00;100154.16;182596;1235;57947;-84
2024/02/27 17:58:14;;;;;;;58.00;35.80;;;;;;;9.00;100.00;100157.08;182342;1235;46066;-84
2024/02/27 18:02:16;;;;;;;47.80;35.80;;;;;;;9.01;100.00;100160.63;183857;1235;46200;-86
2024/02/27 18:06:18;;;;;;;68.00;38.70;;;;;;;8.98;100.00;100155.65;182836;1235;46080;-85
2024/02/27 18:10:20;;;;;;;66.70;41.20;;;;;;;8.97;100.00;100160.48;182872;1234;46055;-85
2024/02/27 18:14:22;;;;;;;77.70;38.90;;;;;;;8.93;100.00;100164.39;182948;1235;57988;-85